Aeroporto :
LOGIN :

Iscrizione | Disclaimer

   EN    FR    IT 

 










Sommario :    VFR   VFR Marginale   IFR   IFR Intensivo   IFR Molto Intensivo
Visibilità : 
Base nubi : 
>= 8 km
>= 3000ft
5 / 8 km
1000 / 3000 ft
1500m / 5 km
500 / 1000 ft
800 / 1500m
200 / 500 ft
< 800m
< 200 ft
Simboli :   Temporali  Nebbia  Neve Forte  Precipitazioni Forti  Vento > 20 kt
SIGMETs :   Varie  Temporali  Ghiacco  Turbolenza  Onda orograficha  Ceneri Vulcaniche







- Altitudine del aeroporto : 336 ft
- Codice IATA : GCI
- Carte del aeroporto


EGJB - Guernsey

ULTIMO METAR :
  • 240820Z 25012KT 7000 RA SCT003 BKN048 10/09 Q0993

METARs OBSOLETI :
  • 240750Z 25013KT 6000 RA SCT003 SCT005 BKN048 10/09 Q0992
  • 240720Z 24014KT 9999 -RA SCT003 BKN048 10/10 Q0992
  • 240650Z 24016KT 7000 -RA SCT002 BKN003 10/10 Q0992 RERA
  • 240620Z 23014KT 4000 RA FEW001 BKN002 10/10 Q0992
  • 240550Z 24013KT 8000 -RA FEW003 BKN005 BKN030 10/10 Q0992 RERA

TAF TAF EGJB
Valido dal 24 a 09 ore il 24 a 18 ore UTC


240804Z 2409/2418 23012KT 9999 FEW007 BKN030
TEMPO 2409/2411 26016G26KT 3000 +RA BKN003
BECMG 2410/2412 17010KT
PROB30
TEMPO 2411/2414 6000 SHRA BKN020CB
PROB40
TEMPO 2414/2418 15015G25KT 3000 +TSRA BKN015CB
ATIS : +44 1481 238 957
Nessun NOTAM noto per questo aeroporto.



MetMap, La meteo Aeronautica in un colpo d'occhio ! - Copyright ORBIFLY Dicembre 2007 - Disclaimer

ORBIFLY MET'MAP TEAM :

Programmazione e sviluppo : Alexandra Zaïnal
Concezione e sviluppo : Baudouin d'Aumeries
Co-Programmazione e sviluppo : Marc-Olivier Méhu
Supporto tecnico e logistico : Manuel Goepfert
Aiuto per la traduzione : Arnaldo La Scala

Contatto : metmap@orbifly.com




FONTI E CREDITI :

   NOAA